Time;durP1;ratioP1;P1;durP2;ratioP2;P2;SDS_P1;SDS_P2;PMS_P1;PMS_P2;Temp;Humidity;BMP_temperature;BMP_pressure;BME280_temperature;BME280_humidity;BME280_pressure;Samples;Min_cycle;Max_cycle;Signal;HPM_P1;HPM_P2
2021/12/01 00:02:13;;;;;;;8.00;7.60;;;11.40;77.40;;;;;;5012724;28;20040;-92
2021/12/01 00:04:40;;;;;;;7.95;7.55;;;11.40;77.40;;;;;;4979558;28;20034;-92
2021/12/01 00:07:07;;;;;;;8.10;7.70;;;11.40;77.40;;;;;;4997781;28;20048;-91
2021/12/01 00:09:34;;;;;;;7.68;7.35;;;11.40;77.50;;;;;;4981356;28;20050;-92
2021/12/01 00:12:00;;;;;;;8.05;7.65;;;11.40;77.50;;;;;;4980619;28;20052;-91
2021/12/01 00:14:26;;;;;;;7.63;7.32;;;11.40;77.50;;;;;;4973698;28;20414;-92
2021/12/01 00:16:52;;;;;;;8.27;7.88;;;11.40;77.50;;;;;;4980482;28;20034;-91
2021/12/01 00:19:18;;;;;;;7.40;7.10;;;11.40;77.60;;;;;;5030402;28;20521;-93
2021/12/01 00:21:44;;;;;;;8.05;7.65;;;11.40;77.60;;;;;;5030756;28;20029;-92
2021/12/01 00:24:10;;;;;;;7.68;7.35;;;11.40;77.60;;;;;;5012530;28;20493;-92
2021/12/01 00:26:36;;;;;;;7.93;7.43;;;11.40;77.70;;;;;;5030577;28;20044;-92
2021/12/01 00:29:03;;;;;;;8.05;7.65;;;11.40;77.70;;;;;;5031203;28;20032;-92
2021/12/01 00:31:29;;;;;;;7.20;6.90;;;11.40;77.70;;;;;;5012981;28;20037;-91
2021/12/01 00:33:56;;;;;;;7.80;7.40;;;11.40;77.70;;;;;;5013539;28;20112;-92
2021/12/01 00:36:22;;;;;;;7.93;7.55;;;11.40;77.70;;;;;;4996179;28;20033;-92
2021/12/01 00:38:48;;;;;;;7.18;6.88;;;11.40;77.70;;;;;;4996251;28;20394;-92
2021/12/01 00:41:14;;;;;;;7.78;7.32;;;11.40;77.70;;;;;;5013372;28;20021;-92
2021/12/01 00:43:41;;;;;;;7.55;7.20;;;11.40;77.80;;;;;;5029782;28;20045;-93
2021/12/01 00:46:14;;;;;;;7.75;7.35;;;11.40;77.80;;;;;;5013299;28;20030;-92
2021/12/01 00:48:40;;;;;;;7.55;7.03;;;11.40;77.80;;;;;;4998287;28;20037;-92
2021/12/01 00:51:07;;;;;;;7.60;7.25;;;11.40;77.90;;;;;;5013301;28;20030;-92
2021/12/01 00:53:33;;;;;;;7.80;7.25;;;11.30;77.80;;;;;;4997039;28;20034;-92
2021/12/01 00:55:59;;;;;;;7.00;6.70;;;11.40;77.90;;;;;;5012633;28;20105;-92
2021/12/01 00:58:25;;;;;;;7.18;6.88;;;11.40;77.90;;;;;;4980898;28;20060;-92
2021/12/01 01:00:51;;;;;;;7.10;6.80;;;11.40;77.90;;;;;;5030552;28;20033;-92
2021/12/01 01:03:17;;;;;;;7.15;6.85;;;11.40;77.90;;;;;;5030465;28;20026;-92
2021/12/01 01:05:44;;;;;;;7.30;7.00;;;11.40;77.90;;;;;;5012869;28;20052;-92
2021/12/01 01:08:10;;;;;;;6.95;6.65;;;11.40;77.90;;;;;;4996713;28;20041;-93
2021/12/01 01:18:38;;;;;;;7.30;7.00;;;11.50;77.90;;;;;;5019748;28;20037;-92
2021/12/01 01:21:05;;;;;;;7.10;6.80;;;11.50;77.90;;;;;;5000190;28;20386;-93
2021/12/01 01:23:31;;;;;;;6.82;6.53;;;11.50;77.90;;;;;;5000394;28;20033;-92
2021/12/01 01:25:57;;;;;;;7.20;6.90;;;11.50;77.90;;;;;;5015942;28;20507;-93
2021/12/01 01:28:24;;;;;;;6.90;6.60;;;11.50;78.00;;;;;;4999898;28;20037;-92
2021/12/01 01:30:50;;;;;;;7.05;6.75;;;11.60;78.00;;;;;;5014486;28;20029;-93
2021/12/01 01:33:16;;;;;;;6.93;6.63;;;11.60;78.00;;;;;;4999831;28;20033;-93
2021/12/01 01:35:42;;;;;;;7.15;6.70;;;11.50;78.00;;;;;;5033611;28;20034;-93
2021/12/01 01:38:08;;;;;;;7.10;6.80;;;11.50;78.00;;;;;;5033811;28;20509;-92
2021/12/01 01:40:36;;;;;;;6.63;6.32;;;11.60;78.10;;;;;;5033796;28;20030;-92
2021/12/01 01:43:02;;;;;;;7.65;7.28;;;11.60;78.10;;;;;;5015921;28;20125;-92
2021/12/01 01:45:28;;;;;;;6.97;6.68;;;11.60;78.10;;;;;;5032892;28;20033;-92
2021/12/01 01:48:00;;;;;;;6.75;6.45;;;11.60;78.20;;;;;;5015843;28;20458;-92
2021/12/01 01:50:36;;;;;;;6.95;6.65;;;11.50;78.10;;;;;;5016860;28;20022;-92
2021/12/01 01:53:06;;;;;;;6.90;6.60;;;11.50;78.20;;;;;;5017435;28;20030;-92
2021/12/01 01:55:32;;;;;;;7.00;6.70;;;11.50;78.20;;;;;;5033807;28;20025;-93
2021/12/01 01:57:58;;;;;;;7.00;6.70;;;11.50;78.20;;;;;;5015997;28;20382;-93
2021/12/01 02:00:26;;;;;;;7.32;7.03;;;11.50;78.30;;;;;;4997885;28;20037;-92
2021/12/01 02:02:53;;;;;;;6.88;6.57;;;11.50;78.30;;;;;;4998658;28;20033;-93
2021/12/01 02:05:21;;;;;;;6.80;6.50;;;11.50;78.30;;;;;;5016102;28;20025;-92
2021/12/01 02:07:48;;;;;;;6.88;6.57;;;11.50;78.30;;;;;;4999138;28;20056;-92
2021/12/01 02:10:14;;;;;;;7.05;6.75;;;11.60;78.30;;;;;;5033681;28;20025;-93
2021/12/01 02:12:40;;;;;;;6.82;6.53;;;11.60;78.30;;;;;;5015210;28;20033;-92
2021/12/01 02:15:07;;;;;;;7.10;6.80;;;11.50;78.40;;;;;;5032190;28;20490;-92
2021/12/01 02:17:33;;;;;;;7.25;6.95;;;11.60;78.40;;;;;;4998936;28;20057;-92
2021/12/01 02:20:00;;;;;;;6.88;6.57;;;11.60;78.50;;;;;;4982400;28;20038;-91
2021/12/01 02:22:26;;;;;;;6.95;6.65;;;11.50;78.50;;;;;;5015475;28;20382;-92
2021/12/01 02:24:52;;;;;;;6.40;6.10;;;11.60;78.50;;;;;;5015172;28;20025;-92
2021/12/01 02:27:18;;;;;;;7.10;6.72;;;11.60;78.50;;;;;;5014826;28;20422;-92
2021/12/01 02:29:44;;;;;;;7.18;6.88;;;11.60;78.50;;;;;;4998244;28;20052;-92
2021/12/01 02:32:10;;;;;;;7.75;7.35;;;11.60;78.60;;;;;;5014455;28;20033;-92
2021/12/01 02:34:39;;;;;;;7.13;6.82;;;11.60;78.60;;;;;;5032786;28;20467;-92
2021/12/01 02:37:05;;;;;;;7.15;6.85;;;11.60;78.60;;;;;;5015987;28;20045;-93
2021/12/01 02:39:31;;;;;;;6.32;6.03;;;11.60;78.60;;;;;;4998805;28;20045;-93
2021/12/01 02:41:59;;;;;;;7.55;7.25;;;11.60;78.60;;;;;;5014790;28;20033;-92
2021/12/01 02:44:27;;;;;;;7.35;6.85;;;11.60;78.60;;;;;;5031939;28;20060;-92
2021/12/01 02:46:53;;;;;;;6.97;6.68;;;11.60;78.60;;;;;;4998558;28;20044;-92
2021/12/01 02:49:23;;;;;;;6.93;6.63;;;11.60;78.60;;;;;;4979772;28;20049;-93
2021/12/01 02:51:52;;;;;;;7.32;7.03;;;11.60;78.60;;;;;;5015221;28;20040;-93
2021/12/01 02:54:18;;;;;;;6.95;6.65;;;11.70;78.70;;;;;;4999264;28;20060;-92
2021/12/01 02:56:48;;;;;;;7.07;6.78;;;11.70;78.70;;;;;;4998215;28;20042;-93
2021/12/01 02:59:14;;;;;;;6.80;6.50;;;11.70;78.70;;;;;;5014279;28;20030;-92
2021/12/01 03:01:41;;;;;;;7.18;6.88;;;11.70;78.80;;;;;;4976560;28;20046;-92
2021/12/01 03:04:07;;;;;;;7.22;6.93;;;11.70;78.70;;;;;;4990783;28;20026;-92
2021/12/01 03:06:35;;;;;;;6.95;6.65;;;11.70;78.80;;;;;;5018426;28;20025;-92
2021/12/01 03:09:01;;;;;;;6.65;6.35;;;11.70;78.80;;;;;;4991619;28;20053;-92
2021/12/01 03:11:27;;;;;;;7.45;7.15;;;11.70;78.80;;;;;;5018704;28;20544;-92
2021/12/01 03:13:54;;;;;;;7.07;6.78;;;11.70;78.80;;;;;;5012453;28;20056;-91
2021/12/01 03:16:20;;;;;;;6.68;6.38;;;11.70;78.80;;;;;;4980339;28;20033;-92
2021/12/01 03:18:46;;;;;;;7.55;7.25;;;11.70;78.80;;;;;;4996322;28;20044;-92
2021/12/01 03:21:13;;;;;;;7.28;6.97;;;11.70;78.80;;;;;;5012964;28;20382;-92
2021/12/01 03:23:39;;;;;;;7.43;7.13;;;11.70;78.80;;;;;;5012326;28;20021;-92
2021/12/01 03:26:05;;;;;;;6.97;6.68;;;11.80;78.90;;;;;;5011750;28;20410;-92
2021/12/01 03:28:31;;;;;;;7.50;7.15;;;11.70;78.90;;;;;;5029864;28;20037;-91
2021/12/01 03:30:57;;;;;;;7.15;6.85;;;11.80;78.90;;;;;;5010273;28;20399;-90
2021/12/01 03:33:24;;;;;;;7.38;7.07;;;11.80;79.70;;;;;;5027624;28;20048;-92
2021/12/01 03:35:51;;;;;;;6.63;6.32;;;11.80;78.90;;;;;;5027174;28;20418;-92
2021/12/01 03:38:17;;;;;;;7.35;7.05;;;11.80;79.00;;;;;;4991351;28;20044;-92
2021/12/01 03:40:44;;;;;;;7.07;6.78;;;11.80;79.00;;;;;;5013279;28;20052;-89
2021/12/01 03:43:10;;;;;;;7.82;7.43;;;11.80;79.00;;;;;;5032289;28;20092;-92
2021/12/01 03:45:36;;;;;;;8.10;7.70;;;11.80;79.00;;;;;;4996312;28;20037;-91
2021/12/01 03:48:02;;;;;;;7.18;6.88;;;11.80;79.10;;;;;;5014118;28;20033;-93
2021/12/01 03:50:28;;;;;;;7.13;6.82;;;11.80;79.10;;;;;;5031654;28;20021;-88
2021/12/01 03:52:55;;;;;;;7.55;7.25;;;11.80;79.10;;;;;;5029476;28;20033;-90
2021/12/01 03:55:21;;;;;;;10.88;7.78;;;11.80;79.20;;;;;;5014222;28;20033;-93
2021/12/01 03:57:47;;;;;;;6.95;6.65;;;11.80;79.20;;;;;;4984124;28;20509;-93
2021/12/01 04:00:14;;;;;;;7.10;6.80;;;11.80;79.20;;;;;;5015803;28;20037;-93
2021/12/01 04:02:40;;;;;;;7.20;6.90;;;11.80;79.30;;;;;;5000140;28;20467;-92
2021/12/01 04:05:07;;;;;;;7.20;6.90;;;11.80;79.30;;;;;;5030596;28;20037;-87
2021/12/01 04:07:33;;;;;;;7.07;6.78;;;11.80;79.30;;;;;;5030113;28;20046;-91
2021/12/01 04:09:59;;;;;;;7.45;7.15;;;11.80;79.30;;;;;;5029563;28;20029;-87
2021/12/01 04:12:26;;;;;;;7.03;6.72;;;11.80;79.30;;;;;;5013014;28;20042;-90
2021/12/01 04:14:53;;;;;;;7.28;6.97;;;11.80;79.40;;;;;;4996724;28;20044;-88
2021/12/01 04:17:19;;;;;;;7.25;6.95;;;11.80;79.40;;;;;;4996961;28;20045;-89
2021/12/01 04:19:45;;;;;;;6.93;6.63;;;11.80;79.40;;;;;;5012754;28;20033;-93
2021/12/01 04:22:12;;;;;;;7.22;6.93;;;11.80;80.20;;;;;;5013084;28;20037;-89
2021/12/01 04:24:38;;;;;;;8.02;7.63;;;11.80;79.40;;;;;;4996946;28;20030;-90
2021/12/01 04:27:04;;;;;;;7.13;6.82;;;11.90;79.50;;;;;;5012525;28;20409;-91
2021/12/01 04:29:30;;;;;;;7.60;7.30;;;11.80;79.40;;;;;;4994183;28;20483;-90
2021/12/01 04:31:56;;;;;;;7.38;7.07;;;11.90;79.50;;;;;;5013169;28;20029;-92
2021/12/01 04:34:23;;;;;;;6.90;6.60;;;11.90;79.50;;;;;;4998129;28;20097;-93
2021/12/01 04:36:50;;;;;;;7.20;6.90;;;11.90;79.50;;;;;;4997723;28;20049;-93
2021/12/01 04:39:17;;;;;;;7.03;6.72;;;11.90;79.50;;;;;;4995916;28;20033;-93
2021/12/01 04:41:55;;;;;;;7.32;7.03;;;11.90;79.50;;;;;;5013815;28;20032;-92
2021/12/01 04:44:22;;;;;;;8.02;7.63;;;11.90;79.50;;;;;;5000516;28;20028;-91
2021/12/01 04:46:48;;;;;;;7.20;6.90;;;11.90;79.50;;;;;;5016168;28;22168;-90
2021/12/01 04:49:19;;;;;;;7.95;7.45;;;11.90;79.60;;;;;;5006592;28;20038;-91
2021/12/01 04:51:48;;;;;;;7.50;7.20;;;11.90;79.60;;;;;;5000987;28;20498;-90
2021/12/01 04:54:14;;;;;;;7.32;7.03;;;11.90;79.60;;;;;;5016822;28;20037;-90
2021/12/01 04:56:41;;;;;;;7.70;7.35;;;12.00;79.70;;;;;;4999678;28;20042;-92
2021/12/01 04:59:07;;;;;;;7.22;6.93;;;12.00;79.70;;;;;;5016841;28;20092;-91
2021/12/01 05:01:34;;;;;;;6.97;6.68;;;12.00;79.70;;;;;;5000508;28;20038;-91
2021/12/01 05:04:00;;;;;;;6.55;6.25;;;12.00;79.70;;;;;;5001212;28;20037;-88
2021/12/01 05:06:26;;;;;;;6.90;6.60;;;12.00;79.70;;;;;;5015933;28;20034;-93
2021/12/01 05:08:52;;;;;;;7.15;6.85;;;12.00;79.60;;;;;;4983750;28;20064;-90
2021/12/01 05:11:19;;;;;;;6.63;6.32;;;12.00;79.60;;;;;;5013463;28;20123;-90
2021/12/01 05:13:45;;;;;;;7.13;6.82;;;12.00;79.70;;;;;;5027266;28;20044;-91
2021/12/01 05:16:11;;;;;;;6.47;6.18;;;12.00;79.70;;;;;;4995096;28;20029;-91
2021/12/01 05:18:37;;;;;;;7.15;6.85;;;12.00;79.70;;;;;;5032610;28;20501;-90
2021/12/01 05:21:03;;;;;;;6.95;6.65;;;12.10;79.80;;;;;;5009053;28;20034;-92
2021/12/01 05:23:30;;;;;;;6.95;6.65;;;12.10;79.80;;;;;;5006621;28;20034;-92
2021/12/01 05:25:56;;;;;;;6.65;6.35;;;12.10;79.80;;;;;;4974964;28;20832;-90
2021/12/01 05:28:22;;;;;;;6.88;6.57;;;12.10;79.80;;;;;;5004621;28;20053;-88
2021/12/01 05:30:48;;;;;;;7.10;6.80;;;12.10;79.90;;;;;;5024379;28;20045;-88
2021/12/01 05:33:15;;;;;;;6.80;6.50;;;12.10;79.90;;;;;;5006058;28;20042;-89
2021/12/01 05:35:42;;;;;;;6.30;6.00;;;12.20;80.00;;;;;;5006776;28;20041;-88
2021/12/01 05:38:08;;;;;;;6.03;5.72;;;12.20;79.90;;;;;;4990592;28;20035;-89
2021/12/01 05:40:35;;;;;;;6.70;6.40;;;12.20;79.90;;;;;;4972649;28;20045;-90
2021/12/01 05:43:01;;;;;;;6.55;6.25;;;12.20;79.90;;;;;;4989829;28;20033;-91
2021/12/01 05:45:27;;;;;;;6.60;6.30;;;12.20;80.00;;;;;;4988762;28;20400;-89
2021/12/01 05:47:53;;;;;;;6.63;6.32;;;12.20;80.70;;;;;;4990241;28;20034;-90
2021/12/01 05:50:19;;;;;;;6.78;6.47;;;12.20;80.00;;;;;;5006382;28;20040;-91
2021/12/01 05:52:46;;;;;;;7.30;7.00;;;12.20;80.00;;;;;;5022488;28;20033;-92
2021/12/01 05:55:12;;;;;;;7.00;6.70;;;12.20;80.00;;;;;;5023283;28;20045;-92
2021/12/01 05:57:38;;;;;;;7.55;7.15;;;12.20;80.00;;;;;;5005563;28;20044;-92
2021/12/01 06:00:05;;;;;;;6.75;6.45;;;12.30;80.00;;;;;;5012544;28;20037;-93
2021/12/01 06:02:31;;;;;;;6.30;6.00;;;12.30;80.00;;;;;;5033504;28;20390;-92
2021/12/01 06:04:57;;;;;;;6.53;6.22;;;12.30;80.10;;;;;;5000384;28;20037;-90
2021/12/01 06:07:23;;;;;;;6.57;6.28;;;12.30;80.10;;;;;;5033304;28;20033;-90
2021/12/01 06:09:50;;;;;;;6.65;6.35;;;12.30;80.10;;;;;;5010425;28;20045;-91
2021/12/01 06:12:16;;;;;;;6.35;6.05;;;12.30;80.10;;;;;;4994768;28;20021;-91
2021/12/01 06:14:43;;;;;;;6.82;6.53;;;12.30;80.10;;;;;;5033095;28;20482;-91
2021/12/01 06:17:10;;;;;;;6.63;6.32;;;12.30;80.20;;;;;;4998390;28;20037;-92
2021/12/01 06:19:39;;;;;;;6.95;6.65;;;12.30;80.20;;;;;;4981829;28;20041;-92
2021/12/01 06:22:06;;;;;;;6.65;6.35;;;12.30;80.20;;;;;;4982283;28;20041;-91
2021/12/01 06:24:32;;;;;;;6.60;6.30;;;12.30;80.20;;;;;;4984662;28;20498;-95
2021/12/01 06:26:58;;;;;;;6.85;6.55;;;12.30;80.30;;;;;;4981363;28;20046;-93
2021/12/01 06:29:24;;;;;;;6.60;6.30;;;12.30;80.30;;;;;;5006462;28;20045;-93
2021/12/01 06:31:51;;;;;;;6.38;6.07;;;12.30;80.30;;;;;;5002544;28;20283;-94
2021/12/01 06:34:17;;;;;;;6.88;6.57;;;12.30;80.40;;;;;;5021974;28;20033;-93
2021/12/01 06:36:43;;;;;;;6.57;6.28;;;12.30;80.40;;;;;;5017747;28;20524;-94
2021/12/01 06:39:10;;;;;;;6.97;6.68;;;12.30;80.40;;;;;;4982451;28;20056;-92
2021/12/01 06:41:36;;;;;;;6.68;6.38;;;12.30;80.40;;;;;;5000980;28;20138;-92
2021/12/01 06:44:02;;;;;;;6.95;6.65;;;12.30;80.50;;;;;;5002647;28;20469;-92
2021/12/01 06:46:28;;;;;;;7.10;6.80;;;12.30;80.60;;;;;;5019820;28;20049;-87
2021/12/01 06:48:56;;;;;;;6.95;6.65;;;12.30;80.60;;;;;;4998285;28;20056;-87
2021/12/01 06:51:22;;;;;;;6.78;6.47;;;12.30;80.60;;;;;;4998118;28;20030;-86
2021/12/01 06:53:48;;;;;;;6.88;6.57;;;12.30;80.60;;;;;;4998358;28;20029;-87
2021/12/01 06:56:16;;;;;;;6.45;6.15;;;12.20;80.60;;;;;;4981942;28;20387;-87
2021/12/01 06:58:42;;;;;;;6.45;6.15;;;12.20;80.60;;;;;;5014487;28;20285;-87
2021/12/01 07:01:09;;;;;;;6.68;6.38;;;12.20;80.70;;;;;;4982255;28;20113;-87
2021/12/01 07:03:35;;;;;;;6.57;6.28;;;12.20;80.70;;;;;;5014302;28;20033;-87
2021/12/01 07:06:01;;;;;;;6.30;6.00;;;12.20;80.80;;;;;;5013451;28;20398;-87
2021/12/01 07:08:27;;;;;;;7.55;7.15;;;12.10;80.70;;;;;;5019254;28;20399;-93
2021/12/01 07:10:54;;;;;;;6.25;5.95;;;12.10;80.80;;;;;;4983405;28;20095;-94
2021/12/01 07:13:20;;;;;;;6.97;6.68;;;12.20;80.90;;;;;;4983524;28;20036;-92
2021/12/01 07:15:46;;;;;;;6.40;6.10;;;12.20;80.90;;;;;;5007846;28;20283;-88
2021/12/01 07:18:12;;;;;;;6.50;6.20;;;12.20;80.90;;;;;;4980844;28;20037;-88
2021/12/01 07:20:39;;;;;;;7.13;6.82;;;12.20;80.90;;;;;;4981816;28;20042;-88
2021/12/01 07:23:05;;;;;;;6.50;6.20;;;12.20;80.90;;;;;;4981542;28;20030;-89
2021/12/01 07:25:31;;;;;;;6.80;6.45;;;12.20;80.90;;;;;;4982078;28;20042;-90
2021/12/01 07:27:58;;;;;;;7.07;6.78;;;12.20;81.00;;;;;;4979503;28;20041;-89
2021/12/01 07:30:24;;;;;;;6.78;6.47;;;12.20;81.00;;;;;;4996190;28;20037;-91
2021/12/01 07:32:50;;;;;;;7.07;6.78;;;12.20;81.00;;;;;;4984961;28;20045;-88
2021/12/01 07:35:17;;;;;;;7.43;7.13;;;12.20;81.00;;;;;;4980975;28;20057;-90
2021/12/01 07:37:44;;;;;;;7.10;6.80;;;12.10;81.00;;;;;;4997438;28;20453;-91
2021/12/01 07:40:10;;;;;;;7.35;6.95;;;12.10;81.10;;;;;;4981723;28;20037;-89
2021/12/01 07:42:36;;;;;;;6.95;6.65;;;12.10;81.10;;;;;;4978287;28;20042;-91
2021/12/01 07:45:06;;;;;;;7.85;7.28;;;12.10;81.10;;;;;;4990744;28;20497;-91
2021/12/01 07:47:32;;;;;;;7.15;6.50;;;12.00;81.20;;;;;;4979087;28;20053;-91
2021/12/01 07:49:58;;;;;;;6.60;6.30;;;12.00;81.20;;;;;;4983615;28;20049;-88
2021/12/01 07:52:24;;;;;;;6.38;6.07;;;12.00;81.20;;;;;;4994967;28;20029;-87
2021/12/01 07:54:51;;;;;;;6.95;6.65;;;12.00;81.20;;;;;;5028521;28;20037;-89
2021/12/01 07:57:17;;;;;;;6.43;6.13;;;12.00;81.10;;;;;;4979140;28;20041;-87
2021/12/01 07:59:43;;;;;;;6.70;6.40;;;12.00;81.10;;;;;;5008810;28;20037;-87
2021/12/01 08:02:09;;;;;;;7.07;6.78;;;12.00;81.10;;;;;;4987167;28;20041;-89
2021/12/01 08:04:35;;;;;;;7.72;7.32;;;12.00;81.10;;;;;;4989673;28;20036;-87
2021/12/01 08:07:01;;;;;;;7.07;6.78;;;12.00;81.10;;;;;;4987182;28;20042;-85
2021/12/01 08:09:28;;;;;;;8.70;8.13;;;12.00;81.10;;;;;;5002419;28;20046;-85
2021/12/01 08:11:54;;;;;;;7.07;6.78;;;12.00;81.00;;;;;;4970477;28;20487;-85
2021/12/01 08:14:20;;;;;;;6.97;6.68;;;12.00;81.00;;;;;;4987955;28;20036;-87
2021/12/01 08:16:47;;;;;;;6.97;6.68;;;11.90;81.10;;;;;;4968578;28;20120;-86
2021/12/01 08:19:13;;;;;;;6.63;6.32;;;11.90;81.20;;;;;;4970663;28;20042;-87
2021/12/01 08:21:39;;;;;;;6.65;6.35;;;11.80;81.20;;;;;;4989238;28;20041;-87
2021/12/01 08:24:05;;;;;;;7.22;6.93;;;11.80;81.30;;;;;;4973001;28;20038;-86
2021/12/01 08:26:31;;;;;;;6.90;6.60;;;11.80;81.30;;;;;;4973381;28;20062;-87
2021/12/01 08:28:58;;;;;;;7.72;7.32;;;11.80;81.20;;;;;;4989102;28;20514;-89
2021/12/01 08:31:24;;;;;;;6.60;6.30;;;11.80;81.30;;;;;;4982776;28;20042;-90
2021/12/01 08:33:50;;;;;;;6.45;6.15;;;11.80;81.20;;;;;;4981378;28;20049;-89
2021/12/01 08:36:26;;;;;;;6.43;6.13;;;11.80;81.20;;;;;;4935149;28;1620189;-91
2021/12/01 08:38:52;;;;;;;6.90;6.60;;;11.80;81.20;;;;;;4963455;28;20045;-91
2021/12/01 08:41:18;;;;;;;6.55;6.25;;;11.80;81.20;;;;;;4961855;28;20046;-91
2021/12/01 08:44:11;;;;;;;6.82;6.53;;;11.70;81.10;;;;;;4998825;28;20498;-93
2021/12/01 08:46:37;;;;;;;16.80;7.00;;;11.70;81.20;;;;;;4981784;28;20392;-89
2021/12/01 08:49:03;;;;;;;6.80;6.50;;;11.70;81.20;;;;;;4996097;28;20062;-89
2021/12/01 08:51:30;;;;;;;6.50;6.20;;;11.70;81.10;;;;;;4981910;28;20041;-89
2021/12/01 08:53:56;;;;;;;6.47;6.10;;;11.70;81.00;;;;;;4992265;28;20049;-90
2021/12/01 08:56:23;;;;;;;6.95;6.55;;;11.70;81.00;;;;;;4978673;28;20034;-88
2021/12/01 08:58:49;;;;;;;6.55;6.25;;;11.70;81.00;;;;;;4979949;28;20042;-88
2021/12/01 09:01:15;;;;;;;7.35;6.95;;;11.70;80.80;;;;;;5011003;28;20035;-90
2021/12/01 09:03:50;;;;;;;6.93;6.63;;;11.80;80.90;;;;;;4976667;28;20030;-90
2021/12/01 09:06:17;;;;;;;6.45;6.15;;;11.80;80.80;;;;;;4960893;28;20050;-90
2021/12/01 09:08:43;;;;;;;6.90;6.50;;;11.80;80.70;;;;;;4978805;28;20042;-89
2021/12/01 09:11:09;;;;;;;6.90;6.60;;;11.80;80.70;;;;;;4960670;28;20045;-90
2021/12/01 09:13:35;;;;;;;7.80;7.40;;;11.80;80.60;;;;;;4962386;28;20056;-91
2021/12/01 09:16:30;;;;;;;11.00;7.47;;;11.80;80.60;;;;;;4983107;28;20046;-92
2021/12/01 09:18:57;;;;;;;9.02;8.63;;;11.80;80.60;;;;;;4938233;29;20528;-89
2021/12/01 09:21:23;;;;;;;8.27;7.88;;;11.90;80.50;;;;;;4908053;29;20046;-91
2021/12/01 09:23:57;;;;;;;7.88;7.47;;;11.90;80.50;;;;;;4920999;29;20043;-92
2021/12/01 09:27:09;;;;;;;7.72;7.38;;;11.90;80.30;;;;;;4924647;29;20143;-92
2021/12/01 09:29:35;;;;;;;7.75;7.35;;;12.00;80.40;;;;;;4918444;29;20552;-90
2021/12/01 09:32:02;;;;;;;7.20;6.90;;;12.00;80.20;;;;;;4918047;28;20516;-89
2021/12/01 09:34:44;;;;;;;8.95;8.55;;;12.10;80.10;;;;;;4922983;29;20047;-92
2021/12/01 09:46:00;;;;;;;9.55;9.15;;;12.20;79.70;;;;;;6132433;22;20016;-92
2021/12/01 09:48:27;;;;;;;9.00;8.60;;;12.20;79.80;;;;;;5032675;28;20044;-91
2021/12/01 09:50:53;;;;;;;8.43;8.02;;;12.30;79.70;;;;;;5036866;28;20040;-92
2021/12/01 09:53:20;;;;;;;8.15;7.55;;;12.50;79.60;;;;;;5035474;28;20048;-92
2021/12/01 09:55:49;;;;;;;9.25;8.65;;;12.70;79.20;;;;;;5033115;28;20063;-92
2021/12/01 09:58:30;;;;;;;8.20;7.80;;;12.80;78.80;;;;;;5031127;28;20049;-94
2021/12/01 10:00:58;;;;;;;8.65;8.10;;;12.80;78.70;;;;;;5014471;28;20379;-91
2021/12/01 10:03:43;;;;;;;7.88;7.47;;;12.80;78.70;;;;;;5033562;28;20032;-94
2021/12/01 10:13:01;;;;;;;7.90;7.50;;;12.80;78.70;;;;;;4942043;29;20043;-92
2021/12/01 10:18:34;;;;;;;7.97;7.57;;;12.90;78.80;;;;;;4939529;29;20042;-91
2021/12/01 10:21:20;;;;;;;8.90;8.50;;;12.90;78.70;;;;;;4945600;28;20031;-92
2021/12/01 10:23:49;;;;;;;9.27;8.88;;;13.00;78.60;;;;;;4935088;29;20039;-92
2021/12/01 10:26:18;;;;;;;9.80;9.40;;;13.00;78.40;;;;;;4936842;29;20427;-90
2021/12/01 10:28:46;;;;;;;9.55;9.15;;;13.00;78.40;;;;;;4952153;28;20058;-91
2021/12/01 10:31:15;;;;;;;10.35;9.85;;;13.10;78.40;;;;;;4952483;28;20043;-90
2021/12/01 10:33:42;;;;;;;9.93;9.25;;;13.10;78.40;;;;;;4935543;29;20043;-90
2021/12/01 10:36:09;;;;;;;10.93;10.30;;;13.10;78.40;;;;;;4938967;28;20059;-90
2021/12/01 10:38:41;;;;;;;10.48;9.85;;;13.10;78.40;;;;;;4933583;29;20047;-89
2021/12/01 10:41:12;;;;;;;10.82;10.13;;;13.20;78.30;;;;;;4934080;29;20486;-83
2021/12/01 10:43:46;;;;;;;;;;;13.30;77.80;;;;;;5010269;28;20045;-85
2021/12/01 10:46:18;;;;;;;10.90;10.38;;;13.40;77.50;;;;;;5051382;28;20287;-88
2021/12/01 10:48:46;;;;;;;10.10;9.60;;;13.40;77.30;;;;;;5047952;28;20033;-90
2021/12/01 10:51:31;;;;;;;10.90;10.40;;;13.50;77.20;;;;;;5043855;28;20386;-90
2021/12/01 10:53:58;;;;;;;10.15;9.65;;;13.60;77.10;;;;;;5049280;28;20029;-87
2021/12/01 10:56:24;;;;;;;10.20;9.70;;;13.60;76.90;;;;;;5050560;28;20037;-83
2021/12/01 10:58:50;;;;;;;10.35;9.85;;;13.60;76.90;;;;;;5018905;28;20041;-89
2021/12/01 11:01:24;;;;;;;10.48;9.98;;;13.50;76.80;;;;;;5033094;28;20032;-91
2021/12/01 11:03:51;;;;;;;11.23;10.65;;;13.50;76.90;;;;;;5033764;28;20025;-86
2021/12/01 11:06:20;;;;;;;10.18;9.68;;;13.50;77.10;;;;;;5028612;28;20029;-87
2021/12/01 11:08:55;;;;;;;10.55;9.95;;;13.50;77.10;;;;;;5049262;28;20044;-87
2021/12/01 11:11:22;;;;;;;10.23;9.75;;;13.60;76.90;;;;;;5034513;28;20056;-83
2021/12/01 11:13:48;;;;;;;11.48;10.88;;;13.60;76.90;;;;;;5048348;28;20021;-86
2021/12/01 11:16:15;;;;;;;11.15;10.65;;;13.60;76.90;;;;;;5051185;28;20037;-86
2021/12/01 11:18:49;;;;;;;10.52;10.02;;;13.50;76.90;;;;;;5047494;28;20017;-84
2021/12/01 11:21:17;;;;;;;10.85;10.35;;;13.50;76.80;;;;;;5046053;28;20033;-84
2021/12/01 11:23:47;;;;;;;11.27;10.63;;;13.50;76.90;;;;;;5049505;28;20036;-84
2021/12/01 11:26:19;;;;;;;10.90;10.40;;;13.60;76.90;;;;;;5045790;28;20021;-83
2021/12/01 11:28:56;;;;;;;10.73;10.23;;;13.60;76.90;;;;;;5048048;28;20036;-84
2021/12/01 11:31:22;;;;;;;13.10;11.73;;;13.60;76.60;;;;;;5048007;28;20041;-83
2021/12/01 11:33:49;;;;;;;12.32;11.27;;;13.60;77.40;;;;;;5047894;28;20037;-83
2021/12/01 11:36:20;;;;;;;11.00;10.50;;;13.50;76.60;;;;;;5049516;28;20304;-83
2021/12/01 11:38:54;;;;;;;11.20;10.70;;;13.50;76.60;;;;;;5046853;28;20490;-84
2021/12/01 11:41:20;;;;;;;11.25;10.75;;;13.40;76.70;;;;;;5045353;28;20033;-90
2021/12/01 11:43:49;;;;;;;11.48;10.93;;;13.30;76.80;;;;;;5026547;28;20378;-86
2021/12/01 11:46:16;;;;;;;10.52;10.02;;;13.30;76.90;;;;;;5050956;28;20049;-85
2021/12/01 11:48:56;;;;;;;11.40;10.90;;;13.30;76.90;;;;;;5045239;28;20036;-88
2021/12/01 11:51:23;;;;;;;11.43;10.82;;;13.40;76.80;;;;;;5032781;28;20049;-85
2021/12/01 11:53:57;;;;;;;10.60;10.05;;;13.40;76.60;;;;;;5046280;28;20025;-88
2021/12/01 11:56:29;;;;;;;10.23;9.73;;;13.50;76.50;;;;;;5043666;28;20036;-86
2021/12/01 11:59:14;;;;;;;10.10;9.60;;;13.50;76.00;;;;;;5027030;28;20366;-86
2021/12/01 12:01:44;;;;;;;11.52;10.93;;;13.50;76.10;;;;;;5048972;28;20037;-86
2021/12/01 12:04:13;;;;;;;11.13;10.63;;;13.40;76.10;;;;;;5048350;28;20028;-87
2021/12/01 12:06:52;;;;;;;10.70;10.20;;;13.40;76.10;;;;;;5030370;28;20049;-87
2021/12/01 12:09:19;;;;;;;10.48;9.98;;;13.50;76.10;;;;;;5041548;28;20048;-87
2021/12/01 12:11:58;;;;;;;10.95;10.45;;;13.60;75.80;;;;;;5032140;28;20052;-86
2021/12/01 12:14:31;;;;;;;21.75;11.18;;;13.60;75.60;;;;;;5046299;28;20044;-85
2021/12/01 12:17:14;;;;;;;25.10;12.65;;;13.60;75.50;;;;;;5034868;28;20520;-86
2021/12/01 12:19:43;;;;;;;12.52;11.80;;;13.60;75.60;;;;;;5048557;28;20065;-86
2021/12/01 12:22:15;;;;;;;12.10;11.55;;;13.70;75.40;;;;;;5049468;28;20021;-85
2021/12/01 12:24:50;;;;;;;12.27;11.70;;;13.60;75.30;;;;;;5046076;28;20021;-86
2021/12/01 12:27:44;;;;;;;11.88;11.35;;;13.60;75.40;;;;;;5036061;28;20044;-86
2021/12/01 12:30:13;;;;;;;12.70;12.10;;;13.50;75.30;;;;;;5048960;28;20485;-85
2021/12/01 12:32:42;;;;;;;12.18;11.57;;;13.40;75.20;;;;;;5045717;28;20045;-85
2021/12/01 12:35:17;;;;;;;11.65;11.15;;;13.40;75.30;;;;;;5047154;28;20030;-86
2021/12/01 12:37:43;;;;;;;12.32;11.73;;;13.30;75.30;;;;;;5030728;28;20517;-87
2021/12/01 12:40:31;;;;;;;12.32;11.32;;;13.30;75.30;;;;;;5050224;28;20029;-86
2021/12/01 12:43:23;;;;;;;13.63;11.88;;;13.20;75.10;;;;;;5049393;28;20180;-86
2021/12/01 12:46:00;;;;;;;12.07;11.48;;;13.20;75.10;;;;;;5045456;28;20025;-86
2021/12/01 12:48:45;;;;;;;10.80;10.30;;;13.10;74.90;;;;;;5048751;28;20061;-86
2021/12/01 12:51:26;;;;;;;11.05;10.55;;;13.00;74.90;;;;;;5045606;28;20043;-86
2021/12/01 12:54:03;;;;;;;11.45;10.95;;;12.80;74.80;;;;;;5045905;28;20048;-86
2021/12/01 12:56:33;;;;;;;11.73;11.13;;;12.80;74.80;;;;;;5048560;28;20048;-86
2021/12/01 12:59:38;;;;;;;11.05;10.55;;;12.90;74.80;;;;;;5045198;28;20032;-86
2021/12/01 13:02:10;;;;;;;13.43;12.35;;;12.90;74.60;;;;;;5033873;28;20053;-88
2021/12/01 13:04:49;;;;;;;11.80;11.30;;;13.00;74.50;;;;;;5047602;28;20409;-86
2021/12/01 13:07:31;;;;;;;11.45;10.95;;;13.00;74.40;;;;;;5048280;28;20500;-86
2021/12/01 13:10:22;;;;;;;11.25;10.75;;;13.00;74.30;;;;;;5052465;28;20040;-87
2021/12/01 13:12:57;;;;;;;12.48;11.88;;;13.10;74.30;;;;;;5067386;28;20500;-86
2021/12/01 13:15:33;;;;;;;12.52;11.93;;;13.10;74.20;;;;;;5031060;28;20044;-86
2021/12/01 13:18:20;;;;;;;12.85;12.25;;;13.20;73.90;;;;;;5047062;28;20033;-86